createdAt,value
2023-02-01T00:02:24.612Z,82.84
2023-02-01T00:07:27.980Z,83.89
2023-02-01T00:12:30.110Z,84.45
2023-02-01T00:17:32.112Z,84.06
2023-02-01T00:22:35.407Z,83.46
2023-02-01T00:27:37.343Z,83.15
2023-02-01T00:32:39.303Z,82.87
2023-02-01T00:37:42.598Z,82.96
2023-02-01T00:42:44.550Z,82.22
2023-02-01T00:47:46.585Z,82.59
2023-02-01T00:52:49.882Z,82.15
2023-02-01T00:57:51.855Z,81.29
2023-02-01T01:02:54.292Z,81.22
2023-02-01T01:07:57.635Z,79.91
2023-02-01T01:12:59.612Z,80.24
2023-02-01T01:18:01.595Z,80.28
2023-02-01T01:23:05.501Z,80.82
2023-02-01T01:28:08.414Z,81.69
2023-02-01T01:33:10.633Z,82.89
2023-02-01T01:38:13.913Z,83.04
2023-02-01T01:43:18.884Z,83.84
2023-02-01T01:48:26.494Z,82.61
2023-02-01T01:53:34.409Z,82.54
2023-02-01T01:58:36.678Z,81.22
2023-02-01T02:03:42.227Z,81.54
2023-02-01T02:08:45.631Z,80.32
2023-02-01T02:13:51.925Z,81.26
2023-02-01T02:19:05.921Z,82.98
2023-02-01T02:24:31.752Z,83.12
2023-02-01T02:30:03.349Z,90.53
2023-02-01T02:35:12.590Z,92.49
2023-02-01T02:40:28.944Z,94.09
2023-02-01T02:45:57.473Z,94.20
2023-02-01T02:51:25.693Z,94.68
2023-02-01T02:56:47.213Z,94.93
2023-02-01T03:02:09.017Z,95.23
2023-02-01T03:07:36.114Z,96.02
2023-02-01T03:12:57.474Z,95.21
2023-02-01T03:18:02.772Z,95.14
2023-02-01T03:23:07.557Z,95.00
2023-02-01T03:28:11.180Z,93.36
2023-02-01T03:33:24.358Z,92.02
2023-02-01T03:38:32.121Z,89.17
2023-02-01T03:43:40.528Z,87.82
2023-02-01T03:48:43.044Z,84.92
2023-02-01T03:53:49.747Z,84.42
2023-02-01T03:58:59.923Z,83.13
2023-02-01T04:04:01.970Z,82.58
2023-02-01T04:09:05.378Z,82.02
2023-02-01T04:14:07.409Z,79.72
2023-02-01T04:19:09.424Z,78.53
2023-02-01T04:24:12.814Z,78.44
2023-02-01T04:29:14.775Z,78.03
2023-02-01T04:34:16.943Z,77.88
2023-02-01T04:39:20.273Z,76.99
2023-02-01T04:44:22.531Z,76.06
2023-02-01T04:49:26.412Z,77.54
2023-02-01T04:54:29.732Z,76.11
2023-02-01T04:59:31.795Z,75.25
2023-02-01T05:04:33.834Z,76.04
2023-02-01T05:09:37.198Z,75.75
2023-02-01T05:14:39.153Z,77.25
2023-02-01T05:19:41.118Z,75.83
2023-02-01T05:24:44.466Z,76.46
2023-02-01T05:29:46.429Z,76.91
2023-02-01T05:34:48.379Z,79.39
2023-02-01T05:39:51.820Z,76.62
2023-02-01T05:44:53.778Z,75.41
2023-02-01T05:49:55.838Z,76.01
2023-02-01T05:54:59.197Z,76.61
2023-02-01T06:00:01.581Z,75.45
2023-02-01T06:05:03.885Z,75.57
2023-02-01T06:10:07.976Z,73.72
2023-02-01T06:15:10.709Z,74.59
2023-02-01T06:20:14.826Z,75.31
2023-02-01T06:25:18.701Z,77.03
2023-02-01T06:30:20.968Z,76.23
2023-02-01T06:35:23.096Z,78.02
2023-02-01T06:40:26.375Z,76.93
2023-02-01T06:45:28.334Z,76.00
2023-02-01T06:50:30.311Z,75.92
2023-02-01T06:55:33.820Z,74.64
2023-02-01T07:00:36.100Z,74.28
2023-02-01T07:05:38.043Z,74.22
2023-02-01T07:10:41.351Z,75.85
2023-02-01T07:15:43.342Z,75.41
2023-02-01T07:20:50.753Z,74.51
2023-02-01T07:25:56.656Z,74.78
2023-02-01T07:31:03.706Z,76.25
2023-02-01T07:36:09.376Z,76.33
2023-02-01T07:41:12.631Z,75.01
2023-02-01T07:46:16.250Z,75.19
2023-02-01T07:51:18.934Z,75.39
2023-02-01T07:56:23.738Z,75.39
2023-02-01T08:01:28.276Z,74.54
2023-02-01T08:06:32.341Z,75.51
2023-02-01T08:11:37.562Z,75.79
2023-02-01T08:16:40.224Z,75.54
2023-02-01T08:21:42.328Z,75.23
2023-02-01T08:26:45.724Z,74.95
2023-02-01T08:31:47.797Z,72.25
2023-02-01T08:36:49.998Z,72.74
2023-02-01T08:42:12.137Z,72.01
2023-02-01T08:47:14.216Z,74.17
2023-02-01T08:52:16.492Z,70.82
2023-02-01T08:57:19.896Z,71.74
2023-02-01T09:02:21.873Z,71.73
2023-02-01T09:07:24.163Z,72.05
2023-02-01T09:12:28.074Z,74.24
2023-02-01T09:17:30.838Z,72.03
2023-02-01T09:22:33.151Z,72.28
2023-02-01T09:27:36.535Z,72.00
2023-02-01T09:32:38.620Z,73.09
2023-02-01T09:37:40.580Z,74.01
2023-02-01T09:43:04.610Z,75.38
2023-02-01T09:48:13.931Z,76.41
2023-02-01T09:53:21.936Z,76.99
2023-02-01T09:58:31.154Z,77.48
2023-02-01T10:03:35.565Z,80.17
2023-02-01T10:08:57.032Z,78.23
2023-02-01T10:14:11.392Z,76.66
2023-02-01T10:19:41.805Z,74.94
2023-02-01T10:24:47.848Z,74.87
2023-02-01T10:29:56.304Z,73.46
2023-02-01T10:35:00.617Z,73.27
2023-02-01T10:40:12.711Z,71.93
2023-02-01T10:45:18.882Z,70.25
2023-02-01T10:50:35.355Z,70.35
2023-02-01T10:55:41.322Z,71.21
2023-02-01T11:00:48.156Z,70.79
2023-02-01T11:05:50.637Z,70.54
2023-02-01T11:10:59.627Z,70.64
2023-02-01T11:16:05.400Z,71.24
2023-02-01T11:21:10.332Z,71.43
2023-02-01T11:26:15.582Z,72.56
2023-02-01T11:31:19.634Z,71.94
2023-02-01T11:36:27.420Z,73.43
2023-02-01T11:41:29.509Z,73.18
2023-02-01T11:46:34.569Z,73.25
2023-02-01T11:51:49.347Z,73.14
2023-02-01T11:57:06.007Z,75.16
2023-02-01T12:02:40.915Z,75.33
2023-02-01T12:07:56.313Z,74.56
2023-02-01T12:13:09.817Z,73.41
2023-02-01T12:18:33.387Z,73.38
2023-02-01T12:23:49.783Z,73.28
2023-02-01T12:29:18.364Z,73.90
2023-02-01T12:34:55.944Z,73.75
2023-02-01T12:40:16.798Z,74.85
2023-02-01T12:45:26.154Z,76.14
2023-02-01T12:50:33.960Z,77.11
2023-02-01T12:55:42.293Z,78.41
2023-02-01T13:00:48.142Z,80.17
2023-02-01T13:05:55.152Z,81.53
2023-02-01T13:11:04.144Z,80.40
2023-02-01T13:16:14.436Z,80.89
2023-02-01T13:21:18.687Z,82.71
2023-02-01T13:26:22.000Z,80.62
2023-02-01T13:31:58.361Z,79.67
2023-02-01T13:37:14.064Z,79.69
2023-02-01T13:42:22.320Z,80.42
2023-02-01T13:47:29.007Z,78.66
2023-02-01T13:52:39.827Z,78.94
2023-02-01T13:57:45.892Z,78.16
2023-02-01T14:03:09.121Z,79.54
2023-02-01T14:08:14.142Z,81.40
2023-02-01T14:13:28.510Z,82.82
2023-02-01T14:19:02.174Z,84.04
2023-02-01T14:24:21.418Z,85.49
2023-02-01T14:29:30.387Z,85.59
2023-02-01T14:34:44.303Z,86.02
2023-02-01T14:39:56.677Z,85.80
2023-02-01T14:45:32.028Z,86.63
2023-02-01T14:50:41.519Z,87.49
2023-02-01T14:55:46.985Z,88.38
2023-02-01T15:00:54.003Z,89.26
2023-02-01T15:05:58.560Z,88.65
2023-02-01T15:11:04.642Z,88.38
2023-02-01T15:16:12.021Z,87.42
2023-02-01T15:21:28.922Z,86.64
2023-02-01T15:26:33.388Z,86.80
2023-02-01T15:31:37.939Z,85.42
2023-02-01T15:36:45.820Z,84.60
2023-02-01T15:41:57.804Z,84.08
2023-02-01T15:47:01.023Z,83.87
2023-02-01T15:52:12.645Z,82.97
2023-02-01T15:57:21.640Z,83.07
2023-02-01T16:02:29.351Z,81.70
2023-02-01T16:07:34.625Z,82.53
2023-02-01T16:12:48.754Z,83.11
2023-02-01T16:17:50.792Z,81.85
2023-02-01T16:22:54.080Z,80.69
2023-02-01T16:27:56.262Z,81.65
2023-02-01T16:32:59.982Z,81.12
2023-02-01T16:38:03.991Z,80.60
2023-02-01T16:43:09.397Z,80.06
2023-02-01T16:48:20.282Z,79.71
2023-02-01T16:53:24.978Z,78.67
2023-02-01T16:58:27.911Z,77.93
2023-02-01T17:03:29.959Z,78.06
2023-02-01T17:08:36.909Z,78.78
2023-02-01T17:13:38.997Z,78.45
2023-02-01T17:18:41.037Z,76.81
2023-02-01T17:23:44.433Z,77.38
2023-02-01T17:28:46.431Z,76.68
2023-02-01T17:33:48.439Z,75.80
2023-02-01T17:39:04.770Z,76.08
2023-02-01T17:44:10.607Z,75.49
2023-02-01T17:49:12.598Z,75.73
2023-02-01T17:54:17.858Z,75.74
2023-02-01T17:59:19.844Z,76.03
2023-02-01T18:04:22.528Z,75.25
2023-02-01T18:09:25.859Z,76.61
2023-02-01T18:14:27.885Z,76.78
2023-02-01T18:19:29.866Z,78.06
2023-02-01T18:24:34.777Z,79.14
2023-02-01T18:29:36.763Z,80.28
2023-02-01T18:34:39.042Z,80.57
2023-02-01T18:39:42.645Z,81.04
2023-02-01T18:44:44.862Z,79.18
2023-02-01T18:49:46.807Z,79.58
2023-02-01T18:54:59.052Z,79.02
2023-02-01T19:00:01.991Z,78.74
2023-02-01T19:05:04.745Z,77.88
2023-02-01T19:10:13.784Z,76.98
2023-02-01T19:15:15.980Z,77.27
2023-02-01T19:20:20.786Z,77.48
2023-02-01T19:25:27.124Z,76.68
2023-02-01T19:30:29.501Z,76.19
2023-02-01T19:35:32.379Z,76.63
2023-02-01T19:40:38.403Z,76.57
2023-02-01T19:45:40.449Z,76.18
2023-02-01T19:50:42.516Z,76.80
2023-02-01T19:55:46.736Z,76.57
2023-02-01T20:00:52.108Z,77.44
2023-02-01T20:05:55.407Z,77.32
2023-02-01T20:10:58.786Z,77.99
2023-02-01T20:16:00.811Z,79.00
2023-02-01T20:21:03.623Z,77.59
2023-02-01T20:26:11.275Z,76.93
2023-02-01T20:31:15.412Z,74.72
2023-02-01T20:36:17.702Z,74.58
2023-02-01T20:41:21.778Z,74.04
2023-02-01T20:46:23.930Z,73.51
2023-02-01T20:51:25.933Z,77.42
2023-02-01T20:56:29.290Z,83.15
2023-02-01T21:01:31.365Z,85.42
2023-02-01T21:06:33.446Z,84.40
2023-02-01T21:11:36.744Z,84.87
2023-02-01T21:16:39.515Z,83.68
2023-02-01T21:21:42.270Z,81.51
2023-02-01T21:26:45.626Z,82.96
2023-02-01T21:31:47.594Z,82.52
2023-02-01T21:36:49.565Z,81.32
2023-02-01T21:42:11.514Z,80.99
2023-02-01T21:47:17.237Z,80.77
2023-02-01T21:52:19.685Z,82.15
2023-02-01T21:57:22.962Z,81.89
2023-02-01T22:02:25.195Z,83.78
2023-02-01T22:07:27.238Z,85.53
2023-02-01T22:12:30.570Z,85.16
2023-02-01T22:17:32.554Z,85.10
2023-02-01T22:22:34.518Z,84.33
2023-02-01T22:28:32.596Z,83.55
2023-02-01T22:32:59.741Z,82.85
2023-02-01T22:38:01.664Z,81.90
2023-02-01T22:43:05.410Z,81.96
2023-02-01T22:48:07.421Z,79.92
2023-02-01T22:53:09.771Z,79.70
2023-02-01T22:58:13.077Z,78.86
2023-02-01T23:03:15.170Z,77.86
2023-02-01T23:08:17.222Z,77.76
2023-02-01T23:13:20.513Z,76.60
2023-02-01T23:18:22.562Z,80.22
2023-02-01T23:23:26.746Z,85.33
2023-02-01T23:28:30.713Z,87.22
2023-02-01T23:33:32.674Z,89.34
2023-02-01T23:38:35.138Z,90.32
2023-02-01T23:43:57.444Z,91.17
2023-02-01T23:49:00.624Z,92.27
2023-02-01T23:54:03.811Z,92.93
2023-02-01T23:59:11.916Z,94.05
